Chickasha, Oklahoma
Current Conditions -  °F | °C
As of 9:55 AM on Friday 24 Oct 2014 (Local Time) from KOUN Reporting Station
Clear Clear  
Wind Chill: 63°   Ceiling: Unl
Heat Index: 63°   Visibility: 10mi
Dew Point: 59°   Wind: 13mph
Humidity: 88%   Direction: 170°S
Pressure: 30.14"   Gusts: NA
Location:  35.05°N, 97.94°W
Report Text: KOUN 241455Z AUTO 17011KT 10SM CLR 17/15 A3014 RMK AO2
Loading
Personal Weather Stations






























Interactive Weather Map
Tropical Storm Tracking
New forecast layout! Learn more

10-Day Weather Forecast

Advertisements
Track Severe Weather on mobile